sensor_id;sensor_type;location;lat;lon;timestamp;P1;durP1;ratioP1;P2;durP2;ratioP2
9541;SDS011;4809;48.224;8.572;2024-03-06T00:00:14;15.68;;;8.13;;
9541;SDS011;4809;48.224;8.572;2024-03-06T00:02:39;22.73;;;9.70;;
9541;SDS011;4809;48.224;8.572;2024-03-06T00:05:05;23.15;;;9.23;;
9541;SDS011;4809;48.224;8.572;2024-03-06T00:07:32;11.93;;;6.85;;
9541;SDS011;4809;48.224;8.572;2024-03-06T00:09:58;13.10;;;6.97;;
9541;SDS011;4809;48.224;8.572;2024-03-06T00:12:23;8.52;;;5.45;;
9541;SDS011;4809;48.224;8.572;2024-03-06T00:14:50;8.75;;;5.20;;
9541;SDS011;4809;48.224;8.572;2024-03-06T00:17:15;11.43;;;6.03;;
9541;SDS011;4809;48.224;8.572;2024-03-06T00:19:41;5.55;;;3.78;;
9541;SDS011;4809;48.224;8.572;2024-03-06T00:22:08;4.53;;;3.63;;
9541;SDS011;4809;48.224;8.572;2024-03-06T00:24:33;4.85;;;3.20;;
9541;SDS011;4809;48.224;8.572;2024-03-06T00:26:58;5.63;;;3.45;;
9541;SDS011;4809;48.224;8.572;2024-03-06T00:29:24;4.35;;;3.30;;
9541;SDS011;4809;48.224;8.572;2024-03-06T00:31:49;9.65;;;6.30;;
9541;SDS011;4809;48.224;8.572;2024-03-06T00:34:14;15.80;;;10.65;;
9541;SDS011;4809;48.224;8.572;2024-03-06T00:36:40;17.70;;;12.10;;
9541;SDS011;4809;48.224;8.572;2024-03-06T00:39:06;16.42;;;11.95;;
9541;SDS011;4809;48.224;8.572;2024-03-06T00:41:33;13.98;;;10.30;;
9541;SDS011;4809;48.224;8.572;2024-03-06T00:43:59;8.95;;;6.97;;
9541;SDS011;4809;48.224;8.572;2024-03-06T00:46:24;4.85;;;3.78;;
9541;SDS011;4809;48.224;8.572;2024-03-06T00:48:50;3.97;;;3.03;;
9541;SDS011;4809;48.224;8.572;2024-03-06T00:51:15;3.53;;;2.70;;
9541;SDS011;4809;48.224;8.572;2024-03-06T00:53:40;3.15;;;2.85;;
9541;SDS011;4809;48.224;8.572;2024-03-06T00:56:06;3.78;;;2.90;;
9541;SDS011;4809;48.224;8.572;2024-03-06T00:58:32;2.63;;;2.42;;
9541;SDS011;4809;48.224;8.572;2024-03-06T01:00:57;3.15;;;2.50;;
9541;SDS011;4809;48.224;8.572;2024-03-06T01:03:23;3.78;;;2.67;;
9541;SDS011;4809;48.224;8.572;2024-03-06T01:05:49;3.33;;;2.72;;
9541;SDS011;4809;48.224;8.572;2024-03-06T01:08:15;3.85;;;3.03;;
9541;SDS011;4809;48.224;8.572;2024-03-06T01:10:42;2.75;;;2.33;;
9541;SDS011;4809;48.224;8.572;2024-03-06T01:13:08;2.70;;;2.30;;
9541;SDS011;4809;48.224;8.572;2024-03-06T01:15:35;3.65;;;2.03;;
9541;SDS011;4809;48.224;8.572;2024-03-06T01:18:01;3.45;;;2.25;;
9541;SDS011;4809;48.224;8.572;2024-03-06T01:20:28;2.38;;;2.17;;
9541;SDS011;4809;48.224;8.572;2024-03-06T01:22:53;3.05;;;2.50;;
9541;SDS011;4809;48.224;8.572;2024-03-06T01:25:18;2.47;;;2.28;;
9541;SDS011;4809;48.224;8.572;2024-03-06T01:27:44;2.50;;;2.30;;
9541;SDS011;4809;48.224;8.572;2024-03-06T01:30:09;3.97;;;2.50;;
9541;SDS011;4809;48.224;8.572;2024-03-06T01:32:35;2.80;;;2.33;;
9541;SDS011;4809;48.224;8.572;2024-03-06T01:35:00;2.60;;;2.40;;
9541;SDS011;4809;48.224;8.572;2024-03-06T01:37:26;3.40;;;2.53;;
9541;SDS011;4809;48.224;8.572;2024-03-06T01:39:51;2.93;;;2.40;;
9541;SDS011;4809;48.224;8.572;2024-03-06T01:42:17;3.53;;;2.53;;
9541;SDS011;4809;48.224;8.572;2024-03-06T01:44:43;2.53;;;2.33;;
9541;SDS011;4809;48.224;8.572;2024-03-06T01:47:08;2.47;;;2.28;;
9541;SDS011;4809;48.224;8.572;2024-03-06T01:49:34;3.65;;;2.72;;
9541;SDS011;4809;48.224;8.572;2024-03-06T01:51:59;3.33;;;2.57;;
9541;SDS011;4809;48.224;8.572;2024-03-06T01:54:25;3.30;;;2.47;;
9541;SDS011;4809;48.224;8.572;2024-03-06T01:56:51;4.13;;;2.60;;
9541;SDS011;4809;48.224;8.572;2024-03-06T01:59:19;3.45;;;2.90;;
9541;SDS011;4809;48.224;8.572;2024-03-06T02:01:46;4.45;;;3.05;;
9541;SDS011;4809;48.224;8.572;2024-03-06T02:04:12;4.23;;;3.30;;
9541;SDS011;4809;48.224;8.572;2024-03-06T02:06:38;3.87;;;3.47;;
9541;SDS011;4809;48.224;8.572;2024-03-06T02:09:04;4.10;;;3.30;;
9541;SDS011;4809;48.224;8.572;2024-03-06T02:11:31;4.63;;;3.40;;
9541;SDS011;4809;48.224;8.572;2024-03-06T02:13:57;3.83;;;3.27;;
9541;SDS011;4809;48.224;8.572;2024-03-06T02:16:23;4.10;;;3.40;;
9541;SDS011;4809;48.224;8.572;2024-03-06T02:18:55;5.30;;;3.80;;
9541;SDS011;4809;48.224;8.572;2024-03-06T02:21:22;4.10;;;3.50;;
9541;SDS011;4809;48.224;8.572;2024-03-06T02:23:49;5.40;;;3.73;;
9541;SDS011;4809;48.224;8.572;2024-03-06T02:26:18;4.27;;;3.40;;
9541;SDS011;4809;48.224;8.572;2024-03-06T02:28:50;3.93;;;3.37;;
9541;SDS011;4809;48.224;8.572;2024-03-06T02:31:17;4.10;;;3.53;;
9541;SDS011;4809;48.224;8.572;2024-03-06T02:33:43;4.77;;;3.80;;
9541;SDS011;4809;48.224;8.572;2024-03-06T02:36:09;4.90;;;3.67;;
9541;SDS011;4809;48.224;8.572;2024-03-06T02:38:35;5.27;;;4.10;;
9541;SDS011;4809;48.224;8.572;2024-03-06T02:41:01;4.80;;;3.93;;
9541;SDS011;4809;48.224;8.572;2024-03-06T02:43:28;5.03;;;4.00;;
9541;SDS011;4809;48.224;8.572;2024-03-06T02:45:55;5.60;;;4.10;;
9541;SDS011;4809;48.224;8.572;2024-03-06T02:48:20;5.47;;;4.13;;
9541;SDS011;4809;48.224;8.572;2024-03-06T02:50:46;5.63;;;4.03;;
9541;SDS011;4809;48.224;8.572;2024-03-06T02:53:11;7.20;;;4.10;;
9541;SDS011;4809;48.224;8.572;2024-03-06T02:55:37;5.33;;;4.00;;
9541;SDS011;4809;48.224;8.572;2024-03-06T02:58:02;5.20;;;3.87;;
9541;SDS011;4809;48.224;8.572;2024-03-06T03:00:28;6.37;;;4.00;;
9541;SDS011;4809;48.224;8.572;2024-03-06T03:02:54;4.57;;;3.80;;
9541;SDS011;4809;48.224;8.572;2024-03-06T03:05:19;5.70;;;4.03;;
9541;SDS011;4809;48.224;8.572;2024-03-06T03:07:44;5.87;;;4.03;;
9541;SDS011;4809;48.224;8.572;2024-03-06T03:10:10;6.00;;;3.60;;
9541;SDS011;4809;48.224;8.572;2024-03-06T03:12:35;4.88;;;3.83;;
9541;SDS011;4809;48.224;8.572;2024-03-06T03:15:03;4.93;;;3.85;;
9541;SDS011;4809;48.224;8.572;2024-03-06T03:17:29;6.43;;;3.80;;
9541;SDS011;4809;48.224;8.572;2024-03-06T03:19:55;5.40;;;3.85;;
9541;SDS011;4809;48.224;8.572;2024-03-06T03:22:20;5.10;;;4.10;;
9541;SDS011;4809;48.224;8.572;2024-03-06T03:24:46;5.27;;;4.00;;
9541;SDS011;4809;48.224;8.572;2024-03-06T03:27:12;4.50;;;3.63;;
9541;SDS011;4809;48.224;8.572;2024-03-06T03:29:38;4.35;;;3.85;;
9541;SDS011;4809;48.224;8.572;2024-03-06T03:32:05;5.40;;;4.00;;
9541;SDS011;4809;48.224;8.572;2024-03-06T03:34:30;4.70;;;4.00;;
9541;SDS011;4809;48.224;8.572;2024-03-06T03:36:56;5.30;;;3.85;;
9541;SDS011;4809;48.224;8.572;2024-03-06T03:39:21;5.25;;;3.90;;
9541;SDS011;4809;48.224;8.572;2024-03-06T03:41:50;4.97;;;3.93;;
9541;SDS011;4809;48.224;8.572;2024-03-06T03:44:16;4.28;;;3.55;;
9541;SDS011;4809;48.224;8.572;2024-03-06T03:46:42;5.97;;;3.92;;
9541;SDS011;4809;48.224;8.572;2024-03-06T03:49:08;4.88;;;3.83;;
9541;SDS011;4809;48.224;8.572;2024-03-06T03:51:34;5.22;;;3.90;;
9541;SDS011;4809;48.224;8.572;2024-03-06T03:54:00;4.95;;;3.80;;
9541;SDS011;4809;48.224;8.572;2024-03-06T03:56:25;5.63;;;4.00;;
9541;SDS011;4809;48.224;8.572;2024-03-06T03:58:50;4.97;;;4.18;;
9541;SDS011;4809;48.224;8.572;2024-03-06T04:01:16;5.80;;;4.07;;
9541;SDS011;4809;48.224;8.572;2024-03-06T04:03:41;5.97;;;4.13;;
9541;SDS011;4809;48.224;8.572;2024-03-06T04:06:09;5.90;;;4.47;;
9541;SDS011;4809;48.224;8.572;2024-03-06T04:08:35;4.80;;;4.00;;
9541;SDS011;4809;48.224;8.572;2024-03-06T04:11:00;5.67;;;4.00;;
9541;SDS011;4809;48.224;8.572;2024-03-06T04:13:26;4.93;;;4.10;;
9541;SDS011;4809;48.224;8.572;2024-03-06T04:15:51;6.18;;;4.18;;
9541;SDS011;4809;48.224;8.572;2024-03-06T04:18:17;6.07;;;4.40;;
9541;SDS011;4809;48.224;8.572;2024-03-06T04:20:42;5.80;;;4.53;;
9541;SDS011;4809;48.224;8.572;2024-03-06T04:23:07;6.70;;;4.13;;
9541;SDS011;4809;48.224;8.572;2024-03-06T04:25:33;7.27;;;4.23;;
9541;SDS011;4809;48.224;8.572;2024-03-06T04:27:58;5.40;;;4.37;;
9541;SDS011;4809;48.224;8.572;2024-03-06T04:30:24;4.85;;;4.35;;
9541;SDS011;4809;48.224;8.572;2024-03-06T04:32:50;5.27;;;4.20;;
9541;SDS011;4809;48.224;8.572;2024-03-06T04:35:15;5.47;;;4.20;;
9541;SDS011;4809;48.224;8.572;2024-03-06T04:37:40;6.10;;;4.30;;
9541;SDS011;4809;48.224;8.572;2024-03-06T04:40:07;5.67;;;4.60;;
9541;SDS011;4809;48.224;8.572;2024-03-06T04:42:34;5.20;;;4.23;;
9541;SDS011;4809;48.224;8.572;2024-03-06T04:45:01;5.80;;;4.30;;
9541;SDS011;4809;48.224;8.572;2024-03-06T04:47:28;4.68;;;4.00;;
9541;SDS011;4809;48.224;8.572;2024-03-06T04:49:53;4.38;;;3.97;;
9541;SDS011;4809;48.224;8.572;2024-03-06T04:52:19;4.80;;;4.10;;
9541;SDS011;4809;48.224;8.572;2024-03-06T04:54:44;4.85;;;4.15;;
9541;SDS011;4809;48.224;8.572;2024-03-06T04:57:10;4.60;;;4.00;;
9541;SDS011;4809;48.224;8.572;2024-03-06T04:59:35;6.20;;;4.30;;
9541;SDS011;4809;48.224;8.572;2024-03-06T05:02:01;4.60;;;3.88;;
9541;SDS011;4809;48.224;8.572;2024-03-06T05:04:28;4.60;;;3.88;;
9541;SDS011;4809;48.224;8.572;2024-03-06T05:06:53;5.43;;;3.88;;
9541;SDS011;4809;48.224;8.572;2024-03-06T05:09:19;6.43;;;4.13;;
9541;SDS011;4809;48.224;8.572;2024-03-06T05:11:44;5.97;;;4.28;;
9541;SDS011;4809;48.224;8.572;2024-03-06T05:14:09;5.55;;;4.03;;
9541;SDS011;4809;48.224;8.572;2024-03-06T05:16:35;4.63;;;3.70;;
9541;SDS011;4809;48.224;8.572;2024-03-06T05:19:00;5.18;;;3.80;;
9541;SDS011;4809;48.224;8.572;2024-03-06T05:21:26;5.43;;;4.00;;
9541;SDS011;4809;48.224;8.572;2024-03-06T05:23:51;4.40;;;4.00;;
9541;SDS011;4809;48.224;8.572;2024-03-06T05:26:17;5.80;;;4.30;;
9541;SDS011;4809;48.224;8.572;2024-03-06T05:28:42;6.32;;;4.35;;
9541;SDS011;4809;48.224;8.572;2024-03-06T05:31:18;5.68;;;4.45;;
9541;SDS011;4809;48.224;8.572;2024-03-06T05:33:44;7.13;;;4.43;;
9541;SDS011;4809;48.224;8.572;2024-03-06T05:36:10;6.90;;;4.27;;
9541;SDS011;4809;48.224;8.572;2024-03-06T05:38:38;5.38;;;4.40;;
9541;SDS011;4809;48.224;8.572;2024-03-06T05:41:03;5.90;;;4.68;;
9541;SDS011;4809;48.224;8.572;2024-03-06T05:43:29;5.20;;;4.45;;
9541;SDS011;4809;48.224;8.572;2024-03-06T05:45:54;6.40;;;4.68;;
9541;SDS011;4809;48.224;8.572;2024-03-06T05:48:19;6.50;;;4.70;;
9541;SDS011;4809;48.224;8.572;2024-03-06T05:50:45;7.53;;;5.33;;
9541;SDS011;4809;48.224;8.572;2024-03-06T05:53:11;6.45;;;5.15;;
9541;SDS011;4809;48.224;8.572;2024-03-06T05:55:37;6.13;;;4.85;;
9541;SDS011;4809;48.224;8.572;2024-03-06T05:58:02;5.60;;;4.72;;
9541;SDS011;4809;48.224;8.572;2024-03-06T06:00:28;6.80;;;5.13;;
9541;SDS011;4809;48.224;8.572;2024-03-06T06:02:53;9.73;;;7.07;;
9541;SDS011;4809;48.224;8.572;2024-03-06T06:05:18;38.63;;;26.25;;
9541;SDS011;4809;48.224;8.572;2024-03-06T06:07:45;40.05;;;32.30;;
9541;SDS011;4809;48.224;8.572;2024-03-06T06:10:10;19.67;;;17.65;;
9541;SDS011;4809;48.224;8.572;2024-03-06T06:12:36;9.10;;;6.67;;
9541;SDS011;4809;48.224;8.572;2024-03-06T06:15:01;7.20;;;5.95;;
9541;SDS011;4809;48.224;8.572;2024-03-06T06:17:27;6.50;;;5.38;;
9541;SDS011;4809;48.224;8.572;2024-03-06T06:19:52;7.63;;;5.32;;
9541;SDS011;4809;48.224;8.572;2024-03-06T06:22:18;6.85;;;5.43;;
9541;SDS011;4809;48.224;8.572;2024-03-06T06:24:43;6.50;;;5.20;;
9541;SDS011;4809;48.224;8.572;2024-03-06T06:27:10;5.45;;;4.78;;
9541;SDS011;4809;48.224;8.572;2024-03-06T06:29:36;6.05;;;5.20;;
9541;SDS011;4809;48.224;8.572;2024-03-06T06:32:01;5.75;;;4.95;;
9541;SDS011;4809;48.224;8.572;2024-03-06T06:34:27;6.03;;;4.82;;
9541;SDS011;4809;48.224;8.572;2024-03-06T06:36:53;6.60;;;5.10;;
9541;SDS011;4809;48.224;8.572;2024-03-06T06:39:19;6.93;;;4.82;;
9541;SDS011;4809;48.224;8.572;2024-03-06T06:41:44;5.47;;;4.83;;
9541;SDS011;4809;48.224;8.572;2024-03-06T06:44:09;6.20;;;4.90;;
9541;SDS011;4809;48.224;8.572;2024-03-06T06:46:36;6.63;;;5.28;;
9541;SDS011;4809;48.224;8.572;2024-03-06T06:49:02;7.88;;;6.38;;
9541;SDS011;4809;48.224;8.572;2024-03-06T06:51:27;6.85;;;5.70;;
9541;SDS011;4809;48.224;8.572;2024-03-06T06:53:52;7.07;;;5.35;;
9541;SDS011;4809;48.224;8.572;2024-03-06T06:56:19;8.70;;;5.80;;
9541;SDS011;4809;48.224;8.572;2024-03-06T06:58:44;5.95;;;5.25;;
9541;SDS011;4809;48.224;8.572;2024-03-06T07:01:10;6.88;;;5.60;;
9541;SDS011;4809;48.224;8.572;2024-03-06T07:03:35;8.07;;;6.22;;
9541;SDS011;4809;48.224;8.572;2024-03-06T07:06:00;7.90;;;6.57;;
9541;SDS011;4809;48.224;8.572;2024-03-06T07:08:28;8.27;;;6.00;;
9541;SDS011;4809;48.224;8.572;2024-03-06T07:10:53;7.35;;;5.85;;
9541;SDS011;4809;48.224;8.572;2024-03-06T07:13:19;7.32;;;5.70;;
9541;SDS011;4809;48.224;8.572;2024-03-06T07:15:45;7.45;;;5.68;;
9541;SDS011;4809;48.224;8.572;2024-03-06T07:18:10;7.72;;;5.88;;
9541;SDS011;4809;48.224;8.572;2024-03-06T07:20:36;7.40;;;5.97;;
9541;SDS011;4809;48.224;8.572;2024-03-06T07:23:01;7.13;;;5.63;;
9541;SDS011;4809;48.224;8.572;2024-03-06T07:25:26;7.07;;;5.78;;
9541;SDS011;4809;48.224;8.572;2024-03-06T07:27:52;8.70;;;6.22;;
9541;SDS011;4809;48.224;8.572;2024-03-06T07:30:17;6.97;;;5.60;;
9541;SDS011;4809;48.224;8.572;2024-03-06T07:32:43;7.82;;;6.00;;
9541;SDS011;4809;48.224;8.572;2024-03-06T07:35:11;7.78;;;5.97;;
9541;SDS011;4809;48.224;8.572;2024-03-06T07:37:53;8.43;;;5.65;;
9541;SDS011;4809;48.224;8.572;2024-03-06T07:40:19;8.77;;;6.03;;
9541;SDS011;4809;48.224;8.572;2024-03-06T07:42:44;7.80;;;5.93;;
9541;SDS011;4809;48.224;8.572;2024-03-06T07:45:09;7.30;;;6.20;;
9541;SDS011;4809;48.224;8.572;2024-03-06T07:47:35;7.00;;;5.72;;
9541;SDS011;4809;48.224;8.572;2024-03-06T07:50:02;8.07;;;5.90;;
9541;SDS011;4809;48.224;8.572;2024-03-06T07:52:30;8.32;;;6.20;;
9541;SDS011;4809;48.224;8.572;2024-03-06T07:54:56;8.00;;;6.03;;
9541;SDS011;4809;48.224;8.572;2024-03-06T07:57:22;8.90;;;6.10;;
9541;SDS011;4809;48.224;8.572;2024-03-06T07:59:47;7.82;;;5.95;;
9541;SDS011;4809;48.224;8.572;2024-03-06T08:02:14;8.45;;;6.18;;
9541;SDS011;4809;48.224;8.572;2024-03-06T08:04:39;8.40;;;6.43;;
9541;SDS011;4809;48.224;8.572;2024-03-06T08:07:05;8.05;;;6.30;;
9541;SDS011;4809;48.224;8.572;2024-03-06T08:09:30;9.40;;;6.75;;
9541;SDS011;4809;48.224;8.572;2024-03-06T08:11:56;11.13;;;7.00;;
9541;SDS011;4809;48.224;8.572;2024-03-06T08:14:21;11.73;;;8.15;;
9541;SDS011;4809;48.224;8.572;2024-03-06T08:16:48;10.07;;;7.50;;
9541;SDS011;4809;48.224;8.572;2024-03-06T08:19:13;9.75;;;7.25;;
9541;SDS011;4809;48.224;8.572;2024-03-06T08:21:39;9.25;;;6.80;;
9541;SDS011;4809;48.224;8.572;2024-03-06T08:24:04;7.35;;;5.88;;
9541;SDS011;4809;48.224;8.572;2024-03-06T08:26:30;8.23;;;5.78;;
9541;SDS011;4809;48.224;8.572;2024-03-06T08:28:56;8.52;;;6.07;;
9541;SDS011;4809;48.224;8.572;2024-03-06T08:31:22;9.13;;;5.68;;
9541;SDS011;4809;48.224;8.572;2024-03-06T08:33:47;7.88;;;5.80;;
9541;SDS011;4809;48.224;8.572;2024-03-06T08:36:14;7.65;;;5.93;;
9541;SDS011;4809;48.224;8.572;2024-03-06T08:38:39;6.70;;;5.13;;
9541;SDS011;4809;48.224;8.572;2024-03-06T08:41:05;8.05;;;6.15;;
9541;SDS011;4809;48.224;8.572;2024-03-06T08:43:31;7.82;;;6.13;;
9541;SDS011;4809;48.224;8.572;2024-03-06T08:45:56;9.40;;;6.05;;
9541;SDS011;4809;48.224;8.572;2024-03-06T08:48:22;7.93;;;5.43;;
9541;SDS011;4809;48.224;8.572;2024-03-06T08:50:47;7.45;;;5.78;;
9541;SDS011;4809;48.224;8.572;2024-03-06T08:53:12;8.85;;;6.00;;
9541;SDS011;4809;48.224;8.572;2024-03-06T08:55:39;8.10;;;5.95;;
9541;SDS011;4809;48.224;8.572;2024-03-06T08:58:04;8.32;;;5.78;;
9541;SDS011;4809;48.224;8.572;2024-03-06T09:00:29;8.25;;;5.75;;
9541;SDS011;4809;48.224;8.572;2024-03-06T09:02:55;6.97;;;5.20;;
9541;SDS011;4809;48.224;8.572;2024-03-06T09:05:21;7.47;;;5.80;;
9541;SDS011;4809;48.224;8.572;2024-03-06T09:07:47;6.60;;;5.03;;
9541;SDS011;4809;48.224;8.572;2024-03-06T09:10:12;6.03;;;5.10;;
9541;SDS011;4809;48.224;8.572;2024-03-06T09:12:38;5.68;;;4.72;;
9541;SDS011;4809;48.224;8.572;2024-03-06T09:15:04;5.60;;;4.65;;
9541;SDS011;4809;48.224;8.572;2024-03-06T09:17:32;5.85;;;4.57;;
9541;SDS011;4809;48.224;8.572;2024-03-06T09:19:57;6.35;;;4.82;;
9541;SDS011;4809;48.224;8.572;2024-03-06T09:22:23;5.43;;;4.38;;
9541;SDS011;4809;48.224;8.572;2024-03-06T09:24:48;5.53;;;4.40;;
9541;SDS011;4809;48.224;8.572;2024-03-06T09:27:14;4.95;;;4.40;;
9541;SDS011;4809;48.224;8.572;2024-03-06T09:29:41;4.03;;;3.63;;
9541;SDS011;4809;48.224;8.572;2024-03-06T09:32:06;5.05;;;3.85;;
9541;SDS011;4809;48.224;8.572;2024-03-06T09:34:31;4.85;;;3.88;;
9541;SDS011;4809;48.224;8.572;2024-03-06T09:36:57;4.00;;;3.60;;
9541;SDS011;4809;48.224;8.572;2024-03-06T09:39:22;4.72;;;3.90;;
9541;SDS011;4809;48.224;8.572;2024-03-06T09:41:48;5.78;;;3.63;;
9541;SDS011;4809;48.224;8.572;2024-03-06T09:44:15;5.05;;;3.60;;
9541;SDS011;4809;48.224;8.572;2024-03-06T09:46:44;5.28;;;4.28;;
9541;SDS011;4809;48.224;8.572;2024-03-06T09:49:18;5.63;;;3.92;;
9541;SDS011;4809;48.224;8.572;2024-03-06T09:51:45;6.93;;;4.57;;
9541;SDS011;4809;48.224;8.572;2024-03-06T09:54:12;4.82;;;3.92;;
9541;SDS011;4809;48.224;8.572;2024-03-06T09:56:41;5.00;;;4.15;;
9541;SDS011;4809;48.224;8.572;2024-03-06T09:59:08;4.95;;;4.10;;
9541;SDS011;4809;48.224;8.572;2024-03-06T10:01:33;6.05;;;5.28;;
9541;SDS011;4809;48.224;8.572;2024-03-06T10:04:16;5.53;;;4.57;;
9541;SDS011;4809;48.224;8.572;2024-03-06T10:06:46;6.10;;;4.82;;
9541;SDS011;4809;48.224;8.572;2024-03-06T10:09:11;5.28;;;4.55;;
9541;SDS011;4809;48.224;8.572;2024-03-06T10:11:40;9.30;;;6.10;;
9541;SDS011;4809;48.224;8.572;2024-03-06T10:14:07;8.40;;;6.43;;
9541;SDS011;4809;48.224;8.572;2024-03-06T10:16:32;9.02;;;5.93;;
9541;SDS011;4809;48.224;8.572;2024-03-06T10:19:14;6.53;;;4.57;;
9541;SDS011;4809;48.224;8.572;2024-03-06T10:21:41;9.43;;;7.25;;
9541;SDS011;4809;48.224;8.572;2024-03-06T10:24:09;6.72;;;5.18;;
9541;SDS011;4809;48.224;8.572;2024-03-06T10:26:34;6.38;;;5.03;;
9541;SDS011;4809;48.224;8.572;2024-03-06T10:29:00;6.28;;;5.13;;
9541;SDS011;4809;48.224;8.572;2024-03-06T10:31:26;6.63;;;5.10;;
9541;SDS011;4809;48.224;8.572;2024-03-06T10:33:53;4.25;;;3.63;;
9541;SDS011;4809;48.224;8.572;2024-03-06T10:36:18;4.95;;;3.75;;
9541;SDS011;4809;48.224;8.572;2024-03-06T10:38:44;5.10;;;3.90;;
9541;SDS011;4809;48.224;8.572;2024-03-06T10:41:10;3.63;;;3.33;;
9541;SDS011;4809;48.224;8.572;2024-03-06T10:43:38;3.63;;;3.30;;
9541;SDS011;4809;48.224;8.572;2024-03-06T10:46:06;4.43;;;3.13;;
9541;SDS011;4809;48.224;8.572;2024-03-06T10:48:31;13.07;;;3.90;;
9541;SDS011;4809;48.224;8.572;2024-03-06T10:50:57;4.20;;;3.00;;
9541;SDS011;4809;48.224;8.572;2024-03-06T10:53:22;3.78;;;3.03;;
9541;SDS011;4809;48.224;8.572;2024-03-06T10:55:49;3.45;;;3.03;;
9541;SDS011;4809;48.224;8.572;2024-03-06T10:58:14;3.30;;;3.00;;
9541;SDS011;4809;48.224;8.572;2024-03-06T11:00:41;3.22;;;2.90;;
9541;SDS011;4809;48.224;8.572;2024-03-06T11:03:11;5.95;;;3.50;;
9541;SDS011;4809;48.224;8.572;2024-03-06T11:05:40;3.67;;;3.30;;
9541;SDS011;4809;48.224;8.572;2024-03-06T11:08:12;4.00;;;3.40;;
9541;SDS011;4809;48.224;8.572;2024-03-06T11:10:39;5.70;;;4.35;;
9541;SDS011;4809;48.224;8.572;2024-03-06T11:13:25;5.70;;;4.07;;
9541;SDS011;4809;48.224;8.572;2024-03-06T11:15:51;5.50;;;3.65;;
9541;SDS011;4809;48.224;8.572;2024-03-06T11:20:53;3.78;;;3.38;;
9541;SDS011;4809;48.224;8.572;2024-03-06T11:26:37;3.33;;;2.80;;
9541;SDS011;4809;48.224;8.572;2024-03-06T11:29:02;4.03;;;3.35;;
9541;SDS011;4809;48.224;8.572;2024-03-06T11:31:27;4.63;;;3.40;;
9541;SDS011;4809;48.224;8.572;2024-03-06T11:33:53;4.20;;;3.20;;
9541;SDS011;4809;48.224;8.572;2024-03-06T11:41:28;4.35;;;3.70;;
9541;SDS011;4809;48.224;8.572;2024-03-06T11:43:55;3.40;;;3.10;;
9541;SDS011;4809;48.224;8.572;2024-03-06T11:51:44;3.47;;;3.15;;
9541;SDS011;4809;48.224;8.572;2024-03-06T11:54:11;3.50;;;3.10;;
9541;SDS011;4809;48.224;8.572;2024-03-06T11:56:38;3.65;;;3.17;;
9541;SDS011;4809;48.224;8.572;2024-03-06T11:59:04;3.95;;;3.20;;
9541;SDS011;4809;48.224;8.572;2024-03-06T12:01:31;3.80;;;3.40;;
9541;SDS011;4809;48.224;8.572;2024-03-06T12:03:57;4.40;;;3.53;;
9541;SDS011;4809;48.224;8.572;2024-03-06T12:06:23;3.60;;;3.20;;
9541;SDS011;4809;48.224;8.572;2024-03-06T12:08:48;4.25;;;3.38;;
9541;SDS011;4809;48.224;8.572;2024-03-06T12:11:13;4.45;;;3.10;;
9541;SDS011;4809;48.224;8.572;2024-03-06T12:13:41;3.88;;;3.47;;
9541;SDS011;4809;48.224;8.572;2024-03-06T12:16:07;4.65;;;3.10;;
9541;SDS011;4809;48.224;8.572;2024-03-06T12:18:33;3.90;;;3.50;;
9541;SDS011;4809;48.224;8.572;2024-03-06T12:21:02;3.75;;;3.30;;
9541;SDS011;4809;48.224;8.572;2024-03-06T12:23:28;5.03;;;3.45;;
9541;SDS011;4809;48.224;8.572;2024-03-06T12:26:06;4.60;;;3.53;;
9541;SDS011;4809;48.224;8.572;2024-03-06T12:28:34;5.72;;;3.92;;
9541;SDS011;4809;48.224;8.572;2024-03-06T12:31:03;4.93;;;3.72;;
9541;SDS011;4809;48.224;8.572;2024-03-06T12:33:29;5.70;;;4.15;;
9541;SDS011;4809;48.224;8.572;2024-03-06T12:36:04;4.60;;;3.90;;
9541;SDS011;4809;48.224;8.572;2024-03-06T12:38:31;4.97;;;3.85;;
9541;SDS011;4809;48.224;8.572;2024-03-06T12:40:57;6.80;;;4.55;;
9541;SDS011;4809;48.224;8.572;2024-03-06T12:43:23;6.00;;;4.80;;
9541;SDS011;4809;48.224;8.572;2024-03-06T12:45:49;6.72;;;4.93;;
9541;SDS011;4809;48.224;8.572;2024-03-06T12:48:15;5.82;;;4.13;;
9541;SDS011;4809;48.224;8.572;2024-03-06T12:50:40;6.78;;;4.18;;
9541;SDS011;4809;48.224;8.572;2024-03-06T12:53:07;6.82;;;4.10;;
9541;SDS011;4809;48.224;8.572;2024-03-06T12:55:32;5.78;;;4.18;;
9541;SDS011;4809;48.224;8.572;2024-03-06T12:57:58;6.68;;;4.50;;
9541;SDS011;4809;48.224;8.572;2024-03-06T13:00:24;6.60;;;4.53;;
9541;SDS011;4809;48.224;8.572;2024-03-06T13:02:50;5.95;;;4.47;;
9541;SDS011;4809;48.224;8.572;2024-03-06T13:05:16;5.70;;;4.70;;
9541;SDS011;4809;48.224;8.572;2024-03-06T13:07:42;5.32;;;4.47;;
9541;SDS011;4809;48.224;8.572;2024-03-06T13:10:08;6.70;;;4.60;;
9541;SDS011;4809;48.224;8.572;2024-03-06T13:12:35;6.55;;;4.70;;
9541;SDS011;4809;48.224;8.572;2024-03-06T13:15:03;5.40;;;4.68;;
9541;SDS011;4809;48.224;8.572;2024-03-06T13:17:30;7.53;;;4.57;;
9541;SDS011;4809;48.224;8.572;2024-03-06T13:19:55;6.13;;;4.65;;
9541;SDS011;4809;48.224;8.572;2024-03-06T13:22:21;6.93;;;4.88;;
9541;SDS011;4809;48.224;8.572;2024-03-06T13:24:47;7.05;;;4.95;;
9541;SDS011;4809;48.224;8.572;2024-03-06T13:27:13;6.82;;;5.07;;
9541;SDS011;4809;48.224;8.572;2024-03-06T13:29:39;6.63;;;5.05;;
9541;SDS011;4809;48.224;8.572;2024-03-06T13:32:04;6.35;;;5.00;;
9541;SDS011;4809;48.224;8.572;2024-03-06T13:34:31;7.50;;;4.95;;
9541;SDS011;4809;48.224;8.572;2024-03-06T13:36:57;6.97;;;4.97;;
9541;SDS011;4809;48.224;8.572;2024-03-06T13:39:23;9.10;;;5.43;;
9541;SDS011;4809;48.224;8.572;2024-03-06T13:41:48;9.43;;;5.65;;
9541;SDS011;4809;48.224;8.572;2024-03-06T13:44:14;11.27;;;6.28;;
9541;SDS011;4809;48.224;8.572;2024-03-06T13:46:39;10.15;;;7.30;;
9541;SDS011;4809;48.224;8.572;2024-03-06T13:49:04;9.73;;;6.85;;
9541;SDS011;4809;48.224;8.572;2024-03-06T13:51:30;11.43;;;6.93;;
9541;SDS011;4809;48.224;8.572;2024-03-06T13:53:57;9.85;;;6.18;;
9541;SDS011;4809;48.224;8.572;2024-03-06T13:56:23;8.20;;;5.43;;
9541;SDS011;4809;48.224;8.572;2024-03-06T13:58:48;11.15;;;5.78;;
9541;SDS011;4809;48.224;8.572;2024-03-06T14:01:14;7.55;;;5.40;;
9541;SDS011;4809;48.224;8.572;2024-03-06T14:03:40;8.00;;;5.78;;
9541;SDS011;4809;48.224;8.572;2024-03-06T14:06:05;7.25;;;5.57;;
9541;SDS011;4809;48.224;8.572;2024-03-06T14:08:33;7.28;;;5.22;;
9541;SDS011;4809;48.224;8.572;2024-03-06T14:10:58;8.57;;;5.75;;
9541;SDS011;4809;48.224;8.572;2024-03-06T14:13:24;7.22;;;5.55;;
9541;SDS011;4809;48.224;8.572;2024-03-06T14:15:50;9.35;;;6.30;;
9541;SDS011;4809;48.224;8.572;2024-03-06T14:18:15;8.30;;;5.72;;
9541;SDS011;4809;48.224;8.572;2024-03-06T14:20:41;6.57;;;4.85;;
9541;SDS011;4809;48.224;8.572;2024-03-06T14:23:06;7.15;;;5.43;;
9541;SDS011;4809;48.224;8.572;2024-03-06T14:25:32;6.15;;;4.70;;
9541;SDS011;4809;48.224;8.572;2024-03-06T14:28:00;4.78;;;3.80;;
9541;SDS011;4809;48.224;8.572;2024-03-06T14:30:26;4.95;;;3.70;;
9541;SDS011;4809;48.224;8.572;2024-03-06T14:32:52;3.85;;;3.30;;
9541;SDS011;4809;48.224;8.572;2024-03-06T14:35:17;4.00;;;3.28;;
9541;SDS011;4809;48.224;8.572;2024-03-06T14:37:43;5.15;;;3.50;;
9541;SDS011;4809;48.224;8.572;2024-03-06T14:40:09;4.13;;;3.20;;
9541;SDS011;4809;48.224;8.572;2024-03-06T14:42:35;4.65;;;3.67;;
9541;SDS011;4809;48.224;8.572;2024-03-06T14:45:00;6.82;;;4.50;;
9541;SDS011;4809;48.224;8.572;2024-03-06T14:47:26;6.45;;;4.28;;
9541;SDS011;4809;48.224;8.572;2024-03-06T14:49:52;5.45;;;3.95;;
9541;SDS011;4809;48.224;8.572;2024-03-06T14:52:18;5.82;;;4.10;;
9541;SDS011;4809;48.224;8.572;2024-03-06T14:54:44;6.07;;;4.57;;
9541;SDS011;4809;48.224;8.572;2024-03-06T14:57:11;5.53;;;3.58;;
9541;SDS011;4809;48.224;8.572;2024-03-06T14:59:37;4.53;;;3.60;;
9541;SDS011;4809;48.224;8.572;2024-03-06T15:02:03;4.80;;;3.50;;
9541;SDS011;4809;48.224;8.572;2024-03-06T15:04:28;5.88;;;5.13;;
9541;SDS011;4809;48.224;8.572;2024-03-06T15:06:54;7.00;;;5.68;;
9541;SDS011;4809;48.224;8.572;2024-03-06T15:09:21;5.20;;;4.68;;
9541;SDS011;4809;48.224;8.572;2024-03-06T15:11:50;4.57;;;4.18;;
9541;SDS011;4809;48.224;8.572;2024-03-06T15:14:17;6.03;;;4.30;;
9541;SDS011;4809;48.224;8.572;2024-03-06T15:16:43;5.10;;;3.60;;
9541;SDS011;4809;48.224;8.572;2024-03-06T15:19:09;4.70;;;3.58;;
9541;SDS011;4809;48.224;8.572;2024-03-06T15:21:34;8.18;;;5.47;;
9541;SDS011;4809;48.224;8.572;2024-03-06T15:24:00;4.20;;;3.25;;